sensor_id;sensor_type;location;lat;lon;timestamp;P1;durP1;ratioP1;P2;durP2;ratioP2
17852;SDS011;9052;53.494;14.376;2023-08-31T00:01:01;24.00;;;16.37;;
17852;SDS011;9052;53.494;14.376;2023-08-31T00:03:29;23.20;;;16.47;;
17852;SDS011;9052;53.494;14.376;2023-08-31T00:05:56;22.83;;;16.73;;
17852;SDS011;9052;53.494;14.376;2023-08-31T00:08:23;21.00;;;15.47;;
17852;SDS011;9052;53.494;14.376;2023-08-31T00:10:54;22.63;;;15.57;;
17852;SDS011;9052;53.494;14.376;2023-08-31T00:13:22;20.80;;;15.13;;
17852;SDS011;9052;53.494;14.376;2023-08-31T00:15:49;24.30;;;15.03;;
17852;SDS011;9052;53.494;14.376;2023-08-31T00:18:17;21.40;;;17.30;;
17852;SDS011;9052;53.494;14.376;2023-08-31T00:20:46;22.53;;;16.47;;
17852;SDS011;9052;53.494;14.376;2023-08-31T00:23:12;25.27;;;19.30;;
17852;SDS011;9052;53.494;14.376;2023-08-31T00:25:40;33.07;;;17.97;;
17852;SDS011;9052;53.494;14.376;2023-08-31T00:28:08;33.03;;;17.67;;
17852;SDS011;9052;53.494;14.376;2023-08-31T00:30:35;33.27;;;19.70;;
17852;SDS011;9052;53.494;14.376;2023-08-31T00:33:02;17.73;;;15.83;;
17852;SDS011;9052;53.494;14.376;2023-08-31T00:35:32;29.10;;;18.10;;
17852;SDS011;9052;53.494;14.376;2023-08-31T00:37:59;23.03;;;17.10;;
17852;SDS011;9052;53.494;14.376;2023-08-31T00:40:29;27.50;;;17.60;;
17852;SDS011;9052;53.494;14.376;2023-08-31T00:42:58;32.20;;;19.97;;
17852;SDS011;9052;53.494;14.376;2023-08-31T00:45:25;22.60;;;17.63;;
17852;SDS011;9052;53.494;14.376;2023-08-31T00:47:52;22.50;;;18.23;;
17852;SDS011;9052;53.494;14.376;2023-08-31T00:50:19;29.47;;;20.90;;
17852;SDS011;9052;53.494;14.376;2023-08-31T00:52:48;29.73;;;20.73;;
17852;SDS011;9052;53.494;14.376;2023-08-31T00:55:16;28.47;;;19.13;;
17852;SDS011;9052;53.494;14.376;2023-08-31T00:57:43;28.00;;;21.43;;
17852;SDS011;9052;53.494;14.376;2023-08-31T01:00:11;46.70;;;20.37;;
17852;SDS011;9052;53.494;14.376;2023-08-31T01:02:40;33.10;;;20.50;;
17852;SDS011;9052;53.494;14.376;2023-08-31T01:05:13;36.03;;;20.23;;
17852;SDS011;9052;53.494;14.376;2023-08-31T01:07:50;24.60;;;18.63;;
17852;SDS011;9052;53.494;14.376;2023-08-31T01:10:22;28.43;;;20.30;;
17852;SDS011;9052;53.494;14.376;2023-08-31T01:12:53;30.17;;;19.83;;
17852;SDS011;9052;53.494;14.376;2023-08-31T01:15:23;29.77;;;18.60;;
17852;SDS011;9052;53.494;14.376;2023-08-31T01:17:50;33.53;;;18.60;;
17852;SDS011;9052;53.494;14.376;2023-08-31T01:20:31;24.10;;;17.87;;
17852;SDS011;9052;53.494;14.376;2023-08-31T01:23:04;24.57;;;16.73;;
17852;SDS011;9052;53.494;14.376;2023-08-31T01:25:34;22.03;;;16.53;;
17852;SDS011;9052;53.494;14.376;2023-08-31T01:28:02;22.47;;;17.47;;
17852;SDS011;9052;53.494;14.376;2023-08-31T01:30:29;24.63;;;17.93;;
17852;SDS011;9052;53.494;14.376;2023-08-31T01:32:57;22.67;;;17.23;;
17852;SDS011;9052;53.494;14.376;2023-08-31T01:35:24;23.30;;;17.50;;
17852;SDS011;9052;53.494;14.376;2023-08-31T01:37:52;30.00;;;17.50;;
17852;SDS011;9052;53.494;14.376;2023-08-31T01:40:22;23.23;;;17.10;;
17852;SDS011;9052;53.494;14.376;2023-08-31T01:42:53;24.67;;;16.00;;
17852;SDS011;9052;53.494;14.376;2023-08-31T01:45:22;18.43;;;15.63;;
17852;SDS011;9052;53.494;14.376;2023-08-31T01:47:49;18.23;;;15.83;;
17852;SDS011;9052;53.494;14.376;2023-08-31T01:50:16;24.93;;;16.40;;
17852;SDS011;9052;53.494;14.376;2023-08-31T01:52:42;19.60;;;15.40;;
17852;SDS011;9052;53.494;14.376;2023-08-31T01:55:09;20.60;;;15.97;;
17852;SDS011;9052;53.494;14.376;2023-08-31T01:57:38;20.40;;;16.40;;
17852;SDS011;9052;53.494;14.376;2023-08-31T02:00:08;25.10;;;17.70;;
17852;SDS011;9052;53.494;14.376;2023-08-31T02:02:36;25.63;;;17.90;;
17852;SDS011;9052;53.494;14.376;2023-08-31T02:05:03;25.90;;;17.20;;
17852;SDS011;9052;53.494;14.376;2023-08-31T02:07:31;25.23;;;17.87;;
17852;SDS011;9052;53.494;14.376;2023-08-31T02:09:58;25.60;;;18.60;;
17852;SDS011;9052;53.494;14.376;2023-08-31T02:12:25;25.23;;;17.23;;
17852;SDS011;9052;53.494;14.376;2023-08-31T02:14:52;21.87;;;16.97;;
17852;SDS011;9052;53.494;14.376;2023-08-31T02:17:20;18.93;;;15.00;;
17852;SDS011;9052;53.494;14.376;2023-08-31T02:19:47;25.23;;;17.80;;
17852;SDS011;9052;53.494;14.376;2023-08-31T02:22:14;24.47;;;14.77;;
17852;SDS011;9052;53.494;14.376;2023-08-31T02:24:41;18.43;;;16.57;;
17852;SDS011;9052;53.494;14.376;2023-08-31T02:27:09;31.23;;;16.90;;
17852;SDS011;9052;53.494;14.376;2023-08-31T02:29:36;22.17;;;16.50;;
17852;SDS011;9052;53.494;14.376;2023-08-31T02:32:03;25.30;;;17.53;;
17852;SDS011;9052;53.494;14.376;2023-08-31T02:34:32;27.50;;;18.70;;
17852;SDS011;9052;53.494;14.376;2023-08-31T02:36:59;26.90;;;17.93;;
17852;SDS011;9052;53.494;14.376;2023-08-31T02:39:26;31.00;;;16.80;;
17852;SDS011;9052;53.494;14.376;2023-08-31T02:41:53;20.17;;;16.00;;
17852;SDS011;9052;53.494;14.376;2023-08-31T02:44:20;19.90;;;17.00;;
17852;SDS011;9052;53.494;14.376;2023-08-31T02:46:47;40.80;;;16.60;;
17852;SDS011;9052;53.494;14.376;2023-08-31T02:49:13;30.73;;;16.47;;
17852;SDS011;9052;53.494;14.376;2023-08-31T02:51:42;16.10;;;13.80;;
17852;SDS011;9052;53.494;14.376;2023-08-31T02:54:09;18.73;;;16.30;;
17852;SDS011;9052;53.494;14.376;2023-08-31T02:56:36;17.40;;;15.63;;
17852;SDS011;9052;53.494;14.376;2023-08-31T02:59:02;17.87;;;15.13;;
17852;SDS011;9052;53.494;14.376;2023-08-31T03:01:29;28.70;;;17.87;;
17852;SDS011;9052;53.494;14.376;2023-08-31T03:03:56;27.63;;;18.00;;
17852;SDS011;9052;53.494;14.376;2023-08-31T03:06:23;28.03;;;18.40;;
17852;SDS011;9052;53.494;14.376;2023-08-31T03:08:53;25.50;;;18.57;;
17852;SDS011;9052;53.494;14.376;2023-08-31T03:11:20;19.40;;;16.40;;
17852;SDS011;9052;53.494;14.376;2023-08-31T03:13:46;24.10;;;17.23;;
17852;SDS011;9052;53.494;14.376;2023-08-31T03:16:13;23.70;;;17.63;;
17852;SDS011;9052;53.494;14.376;2023-08-31T03:18:40;18.27;;;14.60;;
17852;SDS011;9052;53.494;14.376;2023-08-31T03:21:07;19.83;;;17.10;;
17852;SDS011;9052;53.494;14.376;2023-08-31T03:23:34;28.60;;;17.83;;
17852;SDS011;9052;53.494;14.376;2023-08-31T03:26:07;21.27;;;17.70;;
17852;SDS011;9052;53.494;14.376;2023-08-31T03:28:34;21.97;;;18.13;;
17852;SDS011;9052;53.494;14.376;2023-08-31T03:31:01;17.73;;;15.20;;
17852;SDS011;9052;53.494;14.376;2023-08-31T03:33:28;18.03;;;14.33;;
17852;SDS011;9052;53.494;14.376;2023-08-31T03:35:59;28.30;;;16.20;;
17852;SDS011;9052;53.494;14.376;2023-08-31T03:38:26;22.30;;;15.50;;
17852;SDS011;9052;53.494;14.376;2023-08-31T03:40:53;26.30;;;14.20;;
17852;SDS011;9052;53.494;14.376;2023-08-31T03:48:36;17.97;;;14.53;;
17852;SDS011;9052;53.494;14.376;2023-08-31T04:01:29;11.77;;;10.47;;
17852;SDS011;9052;53.494;14.376;2023-08-31T04:03:56;25.83;;;11.03;;
17852;SDS011;9052;53.494;14.376;2023-08-31T04:06:23;16.33;;;12.47;;
17852;SDS011;9052;53.494;14.376;2023-08-31T04:08:50;13.97;;;12.50;;
17852;SDS011;9052;53.494;14.376;2023-08-31T04:11:17;15.20;;;12.60;;
17852;SDS011;9052;53.494;14.376;2023-08-31T04:13:44;16.03;;;11.97;;
17852;SDS011;9052;53.494;14.376;2023-08-31T04:16:11;15.47;;;12.37;;
17852;SDS011;9052;53.494;14.376;2023-08-31T04:18:39;16.03;;;12.60;;
17852;SDS011;9052;53.494;14.376;2023-08-31T04:21:06;14.00;;;12.70;;
17852;SDS011;9052;53.494;14.376;2023-08-31T04:23:34;16.83;;;12.90;;
17852;SDS011;9052;53.494;14.376;2023-08-31T04:26:09;20.60;;;12.30;;
17852;SDS011;9052;53.494;14.376;2023-08-31T04:28:36;14.53;;;13.03;;
17852;SDS011;9052;53.494;14.376;2023-08-31T04:31:04;14.50;;;13.13;;
17852;SDS011;9052;53.494;14.376;2023-08-31T04:33:33;15.90;;;13.50;;
17852;SDS011;9052;53.494;14.376;2023-08-31T04:36:02;17.67;;;14.00;;
17852;SDS011;9052;53.494;14.376;2023-08-31T04:38:29;15.67;;;14.07;;
17852;SDS011;9052;53.494;14.376;2023-08-31T04:40:57;19.07;;;12.47;;
17852;SDS011;9052;53.494;14.376;2023-08-31T04:43:25;21.80;;;13.90;;
17852;SDS011;9052;53.494;14.376;2023-08-31T04:45:52;16.33;;;12.63;;
17852;SDS011;9052;53.494;14.376;2023-08-31T04:48:19;16.10;;;14.50;;
17852;SDS011;9052;53.494;14.376;2023-08-31T04:50:46;14.37;;;12.87;;
17852;SDS011;9052;53.494;14.376;2023-08-31T04:53:14;23.10;;;13.33;;
17852;SDS011;9052;53.494;14.376;2023-08-31T04:55:41;24.10;;;13.60;;
17852;SDS011;9052;53.494;14.376;2023-08-31T04:58:09;18.90;;;14.10;;
17852;SDS011;9052;53.494;14.376;2023-08-31T05:00:36;16.53;;;13.27;;
17852;SDS011;9052;53.494;14.376;2023-08-31T05:03:04;15.97;;;14.27;;
17852;SDS011;9052;53.494;14.376;2023-08-31T05:05:31;18.83;;;13.37;;
17852;SDS011;9052;53.494;14.376;2023-08-31T05:07:58;20.60;;;13.80;;
17852;SDS011;9052;53.494;14.376;2023-08-31T05:10:26;25.00;;;14.87;;
17852;SDS011;9052;53.494;14.376;2023-08-31T05:12:53;17.67;;;13.90;;
17852;SDS011;9052;53.494;14.376;2023-08-31T05:15:20;19.40;;;14.37;;
17852;SDS011;9052;53.494;14.376;2023-08-31T05:17:48;13.63;;;11.90;;
17852;SDS011;9052;53.494;14.376;2023-08-31T05:20:15;22.53;;;13.27;;
17852;SDS011;9052;53.494;14.376;2023-08-31T05:22:42;12.80;;;11.53;;
17852;SDS011;9052;53.494;14.376;2023-08-31T05:25:09;16.27;;;14.27;;
17852;SDS011;9052;53.494;14.376;2023-08-31T05:27:37;13.10;;;11.80;;
17852;SDS011;9052;53.494;14.376;2023-08-31T05:30:05;15.57;;;13.63;;
17852;SDS011;9052;53.494;14.376;2023-08-31T05:32:32;17.13;;;14.43;;
17852;SDS011;9052;53.494;14.376;2023-08-31T05:35:00;16.80;;;15.03;;
17852;SDS011;9052;53.494;14.376;2023-08-31T05:37:30;17.00;;;15.20;;
17852;SDS011;9052;53.494;14.376;2023-08-31T05:39:59;16.43;;;13.43;;
17852;SDS011;9052;53.494;14.376;2023-08-31T05:42:26;16.87;;;13.33;;
17852;SDS011;9052;53.494;14.376;2023-08-31T05:44:55;16.90;;;13.30;;
17852;SDS011;9052;53.494;14.376;2023-08-31T05:47:22;14.50;;;12.37;;
17852;SDS011;9052;53.494;14.376;2023-08-31T05:49:49;17.27;;;14.30;;
17852;SDS011;9052;53.494;14.376;2023-08-31T05:52:16;13.93;;;12.53;;
17852;SDS011;9052;53.494;14.376;2023-08-31T05:54:46;19.33;;;13.90;;
17852;SDS011;9052;53.494;14.376;2023-08-31T05:57:13;20.33;;;14.07;;
17852;SDS011;9052;53.494;14.376;2023-08-31T05:59:40;14.73;;;13.17;;
17852;SDS011;9052;53.494;14.376;2023-08-31T06:02:08;15.60;;;12.10;;
17852;SDS011;9052;53.494;14.376;2023-08-31T06:04:36;16.63;;;13.83;;
17852;SDS011;9052;53.494;14.376;2023-08-31T06:07:03;18.80;;;15.37;;
17852;SDS011;9052;53.494;14.376;2023-08-31T06:09:30;19.50;;;15.07;;
17852;SDS011;9052;53.494;14.376;2023-08-31T06:11:57;18.77;;;15.60;;
17852;SDS011;9052;53.494;14.376;2023-08-31T06:14:26;15.30;;;13.80;;
17852;SDS011;9052;53.494;14.376;2023-08-31T06:16:59;23.30;;;16.07;;
17852;SDS011;9052;53.494;14.376;2023-08-31T06:19:41;20.53;;;16.40;;
17852;SDS011;9052;53.494;14.376;2023-08-31T06:22:08;24.27;;;16.57;;
17852;SDS011;9052;53.494;14.376;2023-08-31T06:24:35;21.23;;;15.90;;
17852;SDS011;9052;53.494;14.376;2023-08-31T06:27:03;21.83;;;15.83;;
17852;SDS011;9052;53.494;14.376;2023-08-31T06:29:30;17.53;;;15.60;;
17852;SDS011;9052;53.494;14.376;2023-08-31T06:31:57;25.20;;;17.00;;
17852;SDS011;9052;53.494;14.376;2023-08-31T06:34:24;26.30;;;16.07;;
17852;SDS011;9052;53.494;14.376;2023-08-31T06:36:52;18.47;;;15.97;;
17852;SDS011;9052;53.494;14.376;2023-08-31T06:39:19;16.43;;;13.53;;
17852;SDS011;9052;53.494;14.376;2023-08-31T06:41:46;15.97;;;14.30;;
17852;SDS011;9052;53.494;14.376;2023-08-31T06:44:14;24.10;;;15.83;;
17852;SDS011;9052;53.494;14.376;2023-08-31T06:46:42;25.37;;;18.27;;
17852;SDS011;9052;53.494;14.376;2023-08-31T06:49:08;22.40;;;17.60;;
17852;SDS011;9052;53.494;14.376;2023-08-31T06:51:35;26.67;;;16.53;;
17852;SDS011;9052;53.494;14.376;2023-08-31T06:54:04;22.93;;;17.90;;
17852;SDS011;9052;53.494;14.376;2023-08-31T06:56:31;24.73;;;17.17;;
17852;SDS011;9052;53.494;14.376;2023-08-31T06:58:59;24.53;;;18.23;;
17852;SDS011;9052;53.494;14.376;2023-08-31T07:01:26;22.43;;;17.90;;
17852;SDS011;9052;53.494;14.376;2023-08-31T07:03:53;25.93;;;18.63;;
17852;SDS011;9052;53.494;14.376;2023-08-31T07:06:20;27.90;;;17.97;;
17852;SDS011;9052;53.494;14.376;2023-08-31T07:08:47;22.07;;;16.63;;
17852;SDS011;9052;53.494;14.376;2023-08-31T07:11:15;20.50;;;18.07;;
17852;SDS011;9052;53.494;14.376;2023-08-31T07:13:43;22.70;;;18.50;;
17852;SDS011;9052;53.494;14.376;2023-08-31T07:16:10;23.27;;;18.30;;
17852;SDS011;9052;53.494;14.376;2023-08-31T07:18:37;24.60;;;19.10;;
17852;SDS011;9052;53.494;14.376;2023-08-31T07:21:04;24.20;;;19.43;;
17852;SDS011;9052;53.494;14.376;2023-08-31T07:23:31;19.10;;;17.17;;
17852;SDS011;9052;53.494;14.376;2023-08-31T07:25:58;18.30;;;16.33;;
17852;SDS011;9052;53.494;14.376;2023-08-31T07:28:27;19.77;;;15.30;;
17852;SDS011;9052;53.494;14.376;2023-08-31T07:31:01;18.43;;;15.03;;
17852;SDS011;9052;53.494;14.376;2023-08-31T07:33:29;14.70;;;13.10;;
17852;SDS011;9052;53.494;14.376;2023-08-31T07:35:58;14.27;;;12.73;;
17852;SDS011;9052;53.494;14.376;2023-08-31T07:38:25;13.27;;;11.97;;
17852;SDS011;9052;53.494;14.376;2023-08-31T07:40:52;14.67;;;11.10;;
17852;SDS011;9052;53.494;14.376;2023-08-31T07:43:19;15.43;;;10.60;;
17852;SDS011;9052;53.494;14.376;2023-08-31T07:45:50;10.67;;;9.60;;
17852;SDS011;9052;53.494;14.376;2023-08-31T07:48:17;11.87;;;9.97;;
17852;SDS011;9052;53.494;14.376;2023-08-31T07:50:43;10.97;;;9.70;;
17852;SDS011;9052;53.494;14.376;2023-08-31T07:53:11;9.83;;;8.87;;
17852;SDS011;9052;53.494;14.376;2023-08-31T07:55:38;12.00;;;10.20;;
17852;SDS011;9052;53.494;14.376;2023-08-31T07:58:05;10.60;;;9.60;;
17852;SDS011;9052;53.494;14.376;2023-08-31T08:00:32;10.50;;;9.50;;
17852;SDS011;9052;53.494;14.376;2023-08-31T08:03:01;10.40;;;9.23;;
17852;SDS011;9052;53.494;14.376;2023-08-31T08:05:28;9.60;;;8.70;;
17852;SDS011;9052;53.494;14.376;2023-08-31T08:07:55;10.93;;;9.50;;
17852;SDS011;9052;53.494;14.376;2023-08-31T08:10:25;9.97;;;8.93;;
17852;SDS011;9052;53.494;14.376;2023-08-31T08:12:52;16.97;;;8.90;;
17852;SDS011;9052;53.494;14.376;2023-08-31T08:15:21;9.93;;;9.10;;
17852;SDS011;9052;53.494;14.376;2023-08-31T08:17:48;11.60;;;9.53;;
17852;SDS011;9052;53.494;14.376;2023-08-31T08:20:16;9.93;;;9.03;;
17852;SDS011;9052;53.494;14.376;2023-08-31T08:22:43;8.70;;;7.90;;
17852;SDS011;9052;53.494;14.376;2023-08-31T08:25:10;9.47;;;7.80;;
17852;SDS011;9052;53.494;14.376;2023-08-31T08:27:37;13.80;;;7.40;;
17852;SDS011;9052;53.494;14.376;2023-08-31T08:30:05;7.90;;;7.20;;
17852;SDS011;9052;53.494;14.376;2023-08-31T08:32:32;9.10;;;6.80;;
17852;SDS011;9052;53.494;14.376;2023-08-31T08:34:59;8.60;;;7.30;;
17852;SDS011;9052;53.494;14.376;2023-08-31T08:37:28;9.03;;;7.13;;
17852;SDS011;9052;53.494;14.376;2023-08-31T08:39:57;8.00;;;6.27;;
17852;SDS011;9052;53.494;14.376;2023-08-31T08:42:24;5.90;;;5.37;;
17852;SDS011;9052;53.494;14.376;2023-08-31T08:44:52;6.63;;;5.97;;
17852;SDS011;9052;53.494;14.376;2023-08-31T08:47:19;12.80;;;6.03;;
17852;SDS011;9052;53.494;14.376;2023-08-31T08:49:46;8.30;;;5.50;;
17852;SDS011;9052;53.494;14.376;2023-08-31T08:52:14;11.07;;;5.87;;
17852;SDS011;9052;53.494;14.376;2023-08-31T08:54:43;8.07;;;6.10;;
17852;SDS011;9052;53.494;14.376;2023-08-31T08:57:10;6.00;;;5.10;;
17852;SDS011;9052;53.494;14.376;2023-08-31T08:59:37;5.23;;;4.83;;
17852;SDS011;9052;53.494;14.376;2023-08-31T09:02:05;7.40;;;4.40;;
17852;SDS011;9052;53.494;14.376;2023-08-31T09:04:34;5.33;;;4.97;;
17852;SDS011;9052;53.494;14.376;2023-08-31T09:07:01;4.33;;;3.77;;
17852;SDS011;9052;53.494;14.376;2023-08-31T09:09:28;4.90;;;4.50;;
17852;SDS011;9052;53.494;14.376;2023-08-31T09:11:56;3.60;;;3.30;;
17852;SDS011;9052;53.494;14.376;2023-08-31T09:14:23;4.33;;;3.67;;
17852;SDS011;9052;53.494;14.376;2023-08-31T09:16:50;7.60;;;3.50;;
17852;SDS011;9052;53.494;14.376;2023-08-31T09:19:18;7.57;;;3.90;;
17852;SDS011;9052;53.494;14.376;2023-08-31T09:21:46;4.00;;;3.60;;
17852;SDS011;9052;53.494;14.376;2023-08-31T09:24:13;6.27;;;3.43;;
17852;SDS011;9052;53.494;14.376;2023-08-31T09:26:43;3.37;;;2.93;;
17852;SDS011;9052;53.494;14.376;2023-08-31T09:29:11;5.17;;;2.70;;
17852;SDS011;9052;53.494;14.376;2023-08-31T09:31:41;10.40;;;3.57;;
17852;SDS011;9052;53.494;14.376;2023-08-31T09:34:09;3.50;;;2.93;;
17852;SDS011;9052;53.494;14.376;2023-08-31T09:36:36;10.30;;;4.00;;
17852;SDS011;9052;53.494;14.376;2023-08-31T09:39:03;8.23;;;4.00;;
17852;SDS011;9052;53.494;14.376;2023-08-31T09:41:31;4.20;;;2.67;;
17852;SDS011;9052;53.494;14.376;2023-08-31T09:43:59;3.10;;;2.90;;
17852;SDS011;9052;53.494;14.376;2023-08-31T09:46:43;5.13;;;3.23;;
17852;SDS011;9052;53.494;14.376;2023-08-31T09:49:10;4.90;;;2.60;;
17852;SDS011;9052;53.494;14.376;2023-08-31T09:51:38;3.00;;;2.50;;
17852;SDS011;9052;53.494;14.376;2023-08-31T09:54:06;2.87;;;2.37;;
17852;SDS011;9052;53.494;14.376;2023-08-31T09:56:33;4.60;;;2.53;;
17852;SDS011;9052;53.494;14.376;2023-08-31T09:59:01;30.27;;;3.27;;
17852;SDS011;9052;53.494;14.376;2023-08-31T10:01:29;6.17;;;3.00;;
17852;SDS011;9052;53.494;14.376;2023-08-31T10:03:56;3.20;;;1.60;;
17852;SDS011;9052;53.494;14.376;2023-08-31T10:06:23;8.03;;;2.57;;
17852;SDS011;9052;53.494;14.376;2023-08-31T10:08:51;3.97;;;2.00;;
17852;SDS011;9052;53.494;14.376;2023-08-31T10:11:18;2.40;;;2.00;;
17852;SDS011;9052;53.494;14.376;2023-08-31T10:13:45;2.83;;;1.90;;
17852;SDS011;9052;53.494;14.376;2023-08-31T10:16:13;2.70;;;1.70;;
17852;SDS011;9052;53.494;14.376;2023-08-31T10:18:43;3.50;;;1.87;;
17852;SDS011;9052;53.494;14.376;2023-08-31T10:21:10;3.87;;;2.00;;
17852;SDS011;9052;53.494;14.376;2023-08-31T10:23:43;3.60;;;1.93;;
17852;SDS011;9052;53.494;14.376;2023-08-31T10:26:11;2.27;;;1.37;;
17852;SDS011;9052;53.494;14.376;2023-08-31T10:28:39;2.37;;;1.90;;
17852;SDS011;9052;53.494;14.376;2023-08-31T10:31:07;4.63;;;1.63;;
17852;SDS011;9052;53.494;14.376;2023-08-31T10:33:35;6.27;;;2.00;;
17852;SDS011;9052;53.494;14.376;2023-08-31T10:36:11;3.63;;;1.70;;
17852;SDS011;9052;53.494;14.376;2023-08-31T10:38:39;4.63;;;1.50;;
17852;SDS011;9052;53.494;14.376;2023-08-31T10:41:20;3.13;;;2.00;;
17852;SDS011;9052;53.494;14.376;2023-08-31T10:43:48;2.30;;;1.47;;
17852;SDS011;9052;53.494;14.376;2023-08-31T10:46:27;1.87;;;1.43;;
17852;SDS011;9052;53.494;14.376;2023-08-31T10:48:55;2.57;;;1.47;;
17852;SDS011;9052;53.494;14.376;2023-08-31T10:51:26;3.90;;;2.03;;
17852;SDS011;9052;53.494;14.376;2023-08-31T10:54:06;4.40;;;2.00;;
17852;SDS011;9052;53.494;14.376;2023-08-31T10:56:40;1.70;;;1.60;;
17852;SDS011;9052;53.494;14.376;2023-08-31T10:59:18;3.60;;;1.73;;
17852;SDS011;9052;53.494;14.376;2023-08-31T11:01:52;10.73;;;1.70;;
17852;SDS011;9052;53.494;14.376;2023-08-31T11:04:22;4.37;;;2.10;;
17852;SDS011;9052;53.494;14.376;2023-08-31T11:09:42;7.03;;;2.13;;
17852;SDS011;9052;53.494;14.376;2023-08-31T11:12:10;2.77;;;1.57;;
17852;SDS011;9052;53.494;14.376;2023-08-31T11:14:37;8.80;;;2.17;;
17852;SDS011;9052;53.494;14.376;2023-08-31T11:17:04;3.80;;;1.20;;
17852;SDS011;9052;53.494;14.376;2023-08-31T11:19:32;1.33;;;1.10;;
17852;SDS011;9052;53.494;14.376;2023-08-31T11:22:00;7.80;;;1.37;;
17852;SDS011;9052;53.494;14.376;2023-08-31T11:24:29;2.87;;;1.77;;
17852;SDS011;9052;53.494;14.376;2023-08-31T11:26:56;1.70;;;1.23;;
17852;SDS011;9052;53.494;14.376;2023-08-31T11:29:25;3.03;;;1.90;;
17852;SDS011;9052;53.494;14.376;2023-08-31T11:31:53;3.63;;;1.03;;
17852;SDS011;9052;53.494;14.376;2023-08-31T11:34:23;2.13;;;1.37;;
17852;SDS011;9052;53.494;14.376;2023-08-31T11:36:50;3.70;;;1.13;;
17852;SDS011;9052;53.494;14.376;2023-08-31T11:39:17;2.33;;;1.43;;
17852;SDS011;9052;53.494;14.376;2023-08-31T11:41:45;2.80;;;0.97;;
17852;SDS011;9052;53.494;14.376;2023-08-31T11:44:13;4.53;;;1.20;;
17852;SDS011;9052;53.494;14.376;2023-08-31T11:46:41;2.07;;;1.13;;
17852;SDS011;9052;53.494;14.376;2023-08-31T11:49:08;2.70;;;1.30;;
17852;SDS011;9052;53.494;14.376;2023-08-31T11:51:35;4.93;;;1.17;;
17852;SDS011;9052;53.494;14.376;2023-08-31T11:54:05;6.43;;;1.53;;
17852;SDS011;9052;53.494;14.376;2023-08-31T11:56:39;1.93;;;1.53;;
17852;SDS011;9052;53.494;14.376;2023-08-31T11:59:09;1.20;;;0.90;;
17852;SDS011;9052;53.494;14.376;2023-08-31T12:01:38;0.93;;;0.77;;
17852;SDS011;9052;53.494;14.376;2023-08-31T12:04:09;2.30;;;0.73;;
17852;SDS011;9052;53.494;14.376;2023-08-31T12:06:37;3.17;;;0.90;;
17852;SDS011;9052;53.494;14.376;2023-08-31T12:09:05;2.40;;;0.83;;
17852;SDS011;9052;53.494;14.376;2023-08-31T12:11:32;5.07;;;1.00;;
17852;SDS011;9052;53.494;14.376;2023-08-31T12:13:59;1.27;;;0.73;;
17852;SDS011;9052;53.494;14.376;2023-08-31T12:16:33;3.60;;;0.90;;
17852;SDS011;9052;53.494;14.376;2023-08-31T12:19:01;1.37;;;0.70;;
17852;SDS011;9052;53.494;14.376;2023-08-31T12:21:29;2.47;;;1.20;;
17852;SDS011;9052;53.494;14.376;2023-08-31T12:23:57;3.73;;;0.80;;
17852;SDS011;9052;53.494;14.376;2023-08-31T12:26:24;3.00;;;1.10;;
17852;SDS011;9052;53.494;14.376;2023-08-31T12:28:51;5.50;;;0.93;;
17852;SDS011;9052;53.494;14.376;2023-08-31T12:31:18;3.10;;;1.40;;
17852;SDS011;9052;53.494;14.376;2023-08-31T12:33:46;2.97;;;1.23;;
17852;SDS011;9052;53.494;14.376;2023-08-31T12:36:13;2.47;;;1.10;;
17852;SDS011;9052;53.494;14.376;2023-08-31T12:38:40;9.83;;;1.33;;
17852;SDS011;9052;53.494;14.376;2023-08-31T12:41:07;1.77;;;0.83;;
17852;SDS011;9052;53.494;14.376;2023-08-31T12:43:34;1.73;;;1.57;;
17852;SDS011;9052;53.494;14.376;2023-08-31T12:46:01;3.90;;;1.10;;
17852;SDS011;9052;53.494;14.376;2023-08-31T12:48:30;3.73;;;1.13;;
17852;SDS011;9052;53.494;14.376;2023-08-31T12:50:59;2.40;;;1.10;;
17852;SDS011;9052;53.494;14.376;2023-08-31T12:53:25;1.63;;;1.20;;
17852;SDS011;9052;53.494;14.376;2023-08-31T12:55:53;1.73;;;1.10;;
17852;SDS011;9052;53.494;14.376;2023-08-31T12:58:20;4.87;;;1.20;;
17852;SDS011;9052;53.494;14.376;2023-08-31T13:00:48;6.10;;;0.90;;
17852;SDS011;9052;53.494;14.376;2023-08-31T13:03:18;2.50;;;1.27;;
17852;SDS011;9052;53.494;14.376;2023-08-31T13:05:45;0.97;;;0.90;;
17852;SDS011;9052;53.494;14.376;2023-08-31T13:08:13;1.70;;;0.80;;
17852;SDS011;9052;53.494;14.376;2023-08-31T13:10:40;1.27;;;0.70;;
17852;SDS011;9052;53.494;14.376;2023-08-31T13:13:07;2.10;;;1.10;;
17852;SDS011;9052;53.494;14.376;2023-08-31T13:15:34;2.60;;;1.10;;
17852;SDS011;9052;53.494;14.376;2023-08-31T13:18:01;2.67;;;0.83;;
17852;SDS011;9052;53.494;14.376;2023-08-31T13:20:28;1.63;;;1.30;;
17852;SDS011;9052;53.494;14.376;2023-08-31T13:22:55;1.77;;;0.93;;
17852;SDS011;9052;53.494;14.376;2023-08-31T13:25:23;5.63;;;1.40;;
17852;SDS011;9052;53.494;14.376;2023-08-31T13:27:50;5.40;;;1.13;;
17852;SDS011;9052;53.494;14.376;2023-08-31T13:30:17;8.07;;;1.20;;
17852;SDS011;9052;53.494;14.376;2023-08-31T13:32:44;1.83;;;1.20;;
17852;SDS011;9052;53.494;14.376;2023-08-31T13:35:13;1.73;;;1.20;;
17852;SDS011;9052;53.494;14.376;2023-08-31T13:37:41;2.80;;;1.23;;
17852;SDS011;9052;53.494;14.376;2023-08-31T13:40:11;2.20;;;1.03;;
17852;SDS011;9052;53.494;14.376;2023-08-31T13:42:50;1.20;;;0.80;;
17852;SDS011;9052;53.494;14.376;2023-08-31T13:45:22;3.53;;;1.33;;
17852;SDS011;9052;53.494;14.376;2023-08-31T13:47:50;1.67;;;1.00;;
17852;SDS011;9052;53.494;14.376;2023-08-31T13:50:17;3.60;;;1.07;;
17852;SDS011;9052;53.494;14.376;2023-08-31T13:52:45;1.60;;;1.20;;
17852;SDS011;9052;53.494;14.376;2023-08-31T13:55:13;2.50;;;0.87;;
17852;SDS011;9052;53.494;14.376;2023-08-31T13:57:42;1.20;;;0.70;;
17852;SDS011;9052;53.494;14.376;2023-08-31T14:00:12;1.17;;;0.90;;
17852;SDS011;9052;53.494;14.376;2023-08-31T14:02:41;1.53;;;0.73;;
17852;SDS011;9052;53.494;14.376;2023-08-31T14:05:09;5.43;;;1.07;;
17852;SDS011;9052;53.494;14.376;2023-08-31T14:07:36;2.93;;;1.00;;
17852;SDS011;9052;53.494;14.376;2023-08-31T14:10:03;3.70;;;0.80;;
17852;SDS011;9052;53.494;14.376;2023-08-31T14:12:31;2.30;;;1.00;;
17852;SDS011;9052;53.494;14.376;2023-08-31T14:15:00;4.63;;;1.37;;
17852;SDS011;9052;53.494;14.376;2023-08-31T14:17:29;2.33;;;1.13;;
17852;SDS011;9052;53.494;14.376;2023-08-31T14:19:58;1.43;;;1.00;;
17852;SDS011;9052;53.494;14.376;2023-08-31T14:22:25;16.97;;;1.83;;
17852;SDS011;9052;53.494;14.376;2023-08-31T14:24:52;7.10;;;1.17;;
17852;SDS011;9052;53.494;14.376;2023-08-31T14:27:19;1.27;;;1.10;;
17852;SDS011;9052;53.494;14.376;2023-08-31T14:29:48;1.53;;;1.13;;
17852;SDS011;9052;53.494;14.376;2023-08-31T14:32:16;2.73;;;1.10;;
17852;SDS011;9052;53.494;14.376;2023-08-31T14:34:43;3.00;;;1.60;;
17852;SDS011;9052;53.494;14.376;2023-08-31T14:37:13;5.43;;;1.70;;
17852;SDS011;9052;53.494;14.376;2023-08-31T14:39:40;6.20;;;1.33;;
17852;SDS011;9052;53.494;14.376;2023-08-31T14:42:07;3.47;;;1.43;;
17852;SDS011;9052;53.494;14.376;2023-08-31T14:44:34;6.93;;;1.10;;
17852;SDS011;9052;53.494;14.376;2023-08-31T14:47:11;7.63;;;1.23;;
17852;SDS011;9052;53.494;14.376;2023-08-31T14:49:47;0.90;;;0.80;;
17852;SDS011;9052;53.494;14.376;2023-08-31T14:52:14;1.63;;;0.97;;
17852;SDS011;9052;53.494;14.376;2023-08-31T14:54:42;4.13;;;0.80;;
17852;SDS011;9052;53.494;14.376;2023-08-31T14:57:09;1.33;;;1.10;;